Time;durP1;ratioP1;P1;durP2;ratioP2;P2;SDS_P1;SDS_P2;PMS_P1;PMS_P2;Temp;Humidity;BMP_temperature;BMP_pressure;BME280_temperature;BME280_humidity;BME280_pressure;Samples;Min_cycle;Max_cycle;Signal;HPM_P1;HPM_P2
2021/12/01 00:02:08;;;;;;;4.20;1.50;;;16.80;60.80;17.70;99608.00;;;;4968581;28;20257;-40
2021/12/01 00:04:34;;;;;;;2.30;1.37;;;16.80;60.90;17.70;99606.00;;;;4969342;28;20180;-39
2021/12/01 00:07:00;;;;;;;2.97;1.57;;;16.90;60.80;17.70;99615.00;;;;4969126;28;20181;-40
2021/12/01 00:09:26;;;;;;;1.63;1.40;;;16.80;60.90;17.70;99604.00;;;;4969140;28;20173;-40
2021/12/01 00:11:51;;;;;;;2.20;1.60;;;16.80;60.90;17.70;99594.00;;;;4968370;28;20174;-40
2021/12/01 00:14:17;;;;;;;3.20;1.57;;;16.80;60.70;17.70;99590.00;;;;4969197;28;20201;-40
2021/12/01 00:16:43;;;;;;;1.97;1.37;;;16.70;61.40;17.70;99592.00;;;;4968579;28;20177;-40
2021/12/01 00:19:08;;;;;;;1.70;1.40;;;16.70;61.50;17.70;99586.00;;;;4969022;28;20188;-40
2021/12/01 00:21:34;;;;;;;2.27;1.33;;;16.70;61.50;17.70;99597.00;;;;4969816;28;20204;-40
2021/12/01 00:24:00;;;;;;;1.47;1.37;;;16.70;61.30;17.60;99577.00;;;;4968568;28;20228;-40
2021/12/01 00:26:26;;;;;;;2.90;1.40;;;16.70;61.20;17.60;99568.00;;;;4968866;28;20603;-40
2021/12/01 00:28:51;;;;;;;3.37;1.57;;;16.70;61.10;17.60;99574.00;;;;4968419;28;20216;-40
2021/12/01 00:31:17;;;;;;;1.50;1.40;;;16.70;61.20;17.60;99570.00;;;;4968576;28;20173;-40
2021/12/01 00:33:43;;;;;;;4.73;1.40;;;16.70;61.00;17.60;99562.00;;;;4968893;28;20239;-40
2021/12/01 00:36:13;;;;;;;1.70;1.50;;;16.70;61.20;17.60;99556.00;;;;4968545;28;20554;-40
2021/12/01 00:38:40;;;;;;;1.43;1.33;;;16.70;61.10;17.50;99549.00;;;;4968181;28;20828;-40
2021/12/01 00:41:07;;;;;;;1.50;1.40;;;16.60;61.00;17.60;99544.00;;;;4968632;28;20176;-39
2021/12/01 00:43:38;;;;;;;1.87;1.43;;;16.60;60.90;17.50;99537.00;;;;4968602;28;20282;-40
2021/12/01 00:46:23;;;;;;;2.43;1.03;;;16.60;61.30;17.50;99527.00;;;;4968567;28;20240;-40
2021/12/01 00:48:48;;;;;;;1.33;1.23;;;16.60;61.00;17.50;99510.00;;;;4967690;28;20683;-40
2021/12/01 00:51:16;;;;;;;1.53;1.10;;;16.60;61.10;17.50;99501.00;;;;4968477;28;20172;-39
2021/12/01 00:53:42;;;;;;;1.30;1.20;;;16.60;61.10;17.50;99501.00;;;;4968472;28;20177;-39
2021/12/01 00:56:08;;;;;;;2.67;1.40;;;16.50;61.20;17.50;99501.00;;;;4968564;28;20260;-40
2021/12/01 00:58:34;;;;;;;1.67;1.30;;;16.50;61.00;17.50;99492.00;;;;4967611;28;20201;-40
2021/12/01 01:01:01;;;;;;;1.37;1.20;;;16.60;61.30;17.40;99478.00;;;;4966976;28;20772;-40
2021/12/01 01:03:28;;;;;;;1.30;1.20;;;16.50;61.30;17.50;99479.00;;;;4967189;28;20551;-40
2021/12/01 01:05:54;;;;;;;1.30;1.20;;;16.50;61.10;17.40;99470.00;;;;4968745;28;20244;-40
2021/12/01 01:08:20;;;;;;;1.03;0.97;;;16.50;61.40;17.40;99475.00;;;;4968603;28;20807;-40
2021/12/01 01:10:57;;;;;;;2.00;1.30;;;16.50;61.30;17.40;99477.00;;;;4968281;28;20198;-40
2021/12/01 01:16:22;;;;;;;1.50;1.40;;;16.40;61.20;17.40;99464.00;;;;4973231;28;20172;-40
2021/12/01 01:18:51;;;;;;;1.07;0.97;;;16.50;61.30;17.40;99463.00;;;;4968687;28;20588;-40
2021/12/01 01:21:17;;;;;;;1.73;1.30;;;16.40;61.20;17.40;99442.00;;;;4966677;28;20313;-39
2021/12/01 01:23:43;;;;;;;1.50;1.20;;;16.50;61.30;17.40;99441.00;;;;4967969;28;20212;-40
2021/12/01 01:26:12;;;;;;;1.00;1.00;;;16.40;61.20;17.40;99436.00;;;;4966457;28;20176;-40
2021/12/01 01:28:38;;;;;;;1.70;1.10;;;16.40;61.20;17.30;99432.00;;;;4967908;28;20249;-40
2021/12/01 01:31:04;;;;;;;1.03;1.03;;;16.40;61.30;17.30;99452.00;;;;4967946;28;20169;-39
2021/12/01 01:33:30;;;;;;;1.03;1.03;;;16.50;61.10;17.30;99436.00;;;;4967989;28;20590;-40
2021/12/01 01:35:55;;;;;;;1.73;1.17;;;16.40;61.10;17.30;99443.00;;;;4967825;28;20192;-40
2021/12/01 01:38:21;;;;;;;1.27;1.17;;;16.30;61.30;17.30;99425.00;;;;4967756;28;20212;-40
2021/12/01 01:40:47;;;;;;;1.10;1.10;;;16.40;61.40;17.30;99445.00;;;;4967638;28;20680;-40
2021/12/01 01:43:13;;;;;;;1.27;1.10;;;16.40;61.20;17.30;99441.00;;;;4968031;28;20539;-40
2021/12/01 01:45:38;;;;;;;0.90;0.90;;;16.40;61.20;17.30;99426.00;;;;4967833;28;20169;-40
2021/12/01 01:48:13;;;;;;;1.03;0.93;;;16.30;61.30;17.30;99433.00;;;;4967962;28;20190;-40
2021/12/01 01:50:42;;;;;;;0.73;0.73;;;16.30;61.30;17.20;99434.00;;;;4967309;28;20173;-39
2021/12/01 01:53:14;;;;;;;0.80;0.80;;;16.30;61.30;17.30;99422.00;;;;4966902;28;20173;-39
2021/12/01 01:55:42;;;;;;;1.00;1.00;;;16.30;61.10;17.30;99424.00;;;;4968497;28;20240;-40
2021/12/01 01:58:08;;;;;;;0.90;0.90;;;16.20;61.10;17.20;99409.00;;;;4967811;28;20272;-40
2021/12/01 02:00:40;;;;;;;0.70;0.70;;;16.30;61.40;17.20;99425.00;;;;4967930;28;20745;-40
2021/12/01 02:03:08;;;;;;;1.90;1.00;;;16.20;61.50;17.20;99338.00;;;;4967468;28;20205;-39
2021/12/01 02:05:37;;;;;;;0.93;0.93;;;16.20;61.20;17.20;99399.00;;;;4935021;28;20181;-40
2021/12/01 02:08:03;;;;;;;1.17;0.57;;;16.20;61.60;17.20;99396.00;;;;4967859;28;20248;-40
2021/12/01 02:10:30;;;;;;;0.87;0.87;;;16.20;61.90;17.20;99388.00;;;;4967967;28;20576;-39
2021/12/01 02:12:56;;;;;;;0.77;0.77;;;16.20;61.60;17.20;99380.00;;;;4970010;28;20169;-40
2021/12/01 02:15:21;;;;;;;0.80;0.80;;;16.10;61.50;17.20;99377.00;;;;4969889;28;20280;-39
2021/12/01 02:17:47;;;;;;;0.93;0.93;;;16.10;61.40;17.20;99370.00;;;;4971078;28;20212;-40
2021/12/01 02:20:22;;;;;;;0.87;0.87;;;16.10;61.60;17.20;99367.00;;;;4970953;28;20181;-40
2021/12/01 02:22:48;;;;;;;1.13;1.03;;;16.10;61.60;17.20;99345.00;;;;4970985;28;20236;-40
2021/12/01 02:25:13;;;;;;;1.00;1.00;;;16.20;61.70;17.20;99336.00;;;;4971455;28;20181;-40
2021/12/01 02:27:39;;;;;;;1.10;1.00;;;16.10;61.40;17.20;99341.00;;;;4970798;28;20224;-40
2021/12/01 02:30:05;;;;;;;0.87;0.87;;;16.10;62.00;17.20;99326.00;;;;4970348;28;20169;-40
2021/12/01 02:32:31;;;;;;;1.00;1.00;;;16.10;61.70;17.20;99322.00;;;;4971012;28;20212;-40
2021/12/01 02:34:57;;;;;;;0.73;0.73;;;16.10;61.80;17.20;99243.00;;;;4971036;28;20872;-40
2021/12/01 02:37:22;;;;;;;0.80;0.80;;;16.10;62.00;17.20;99309.00;;;;4970613;28;20241;-40
2021/12/01 02:39:51;;;;;;;0.97;0.97;;;16.10;62.10;17.10;99311.00;;;;4969262;28;20205;-40
2021/12/01 02:42:20;;;;;;;1.10;1.10;;;16.00;61.70;17.10;99297.00;;;;4970234;28;20173;-40
2021/12/01 02:44:47;;;;;;;1.00;0.90;;;16.10;62.20;17.10;99296.00;;;;4970830;28;20200;-39
2021/12/01 02:47:13;;;;;;;0.87;0.87;;;16.00;61.70;17.10;99291.00;;;;4969541;28;20177;-40
2021/12/01 02:49:38;;;;;;;0.90;0.90;;;16.00;61.80;17.10;99289.00;;;;4970807;28;20227;-40
2021/12/01 02:52:05;;;;;;;0.63;0.63;;;16.00;61.70;17.10;99281.00;;;;4972425;28;20231;-40
2021/12/01 02:54:32;;;;;;;0.77;0.77;;;16.00;61.90;17.10;99268.00;;;;4971652;28;20189;-40
2021/12/01 02:56:59;;;;;;;1.00;1.00;;;16.00;61.90;17.10;99265.00;;;;4970473;28;20177;-39
2021/12/01 02:59:25;;;;;;;0.77;0.77;;;15.90;61.90;17.10;99257.00;;;;4970693;28;20188;-39
2021/12/01 03:01:51;;;;;;;0.70;0.70;;;16.00;62.10;17.10;99256.00;;;;4970516;28;20176;-40
2021/12/01 03:04:17;;;;;;;0.67;0.67;;;16.00;61.90;17.10;99262.00;;;;4970147;28;20298;-40
2021/12/01 03:06:44;;;;;;;0.90;0.90;;;15.90;62.00;17.00;99256.00;;;;4969001;28;20185;-39
2021/12/01 03:09:09;;;;;;;1.00;1.00;;;16.00;61.80;17.00;99242.00;;;;4968787;28;20204;-40
2021/12/01 03:11:36;;;;;;;0.97;0.80;;;15.90;61.60;17.00;99247.00;;;;4969941;28;20181;-40
2021/12/01 03:14:11;;;;;;;0.87;0.87;;;16.00;61.90;17.00;99237.00;;;;4969726;28;20273;-40
2021/12/01 03:16:37;;;;;;;1.43;1.10;;;15.90;61.70;17.00;99237.00;;;;4969056;28;20160;-40
2021/12/01 03:19:03;;;;;;;0.60;0.60;;;16.00;62.00;17.00;99240.00;;;;4969577;28;20205;-40
2021/12/01 03:21:28;;;;;;;0.73;0.73;;;15.90;61.60;17.00;99223.00;;;;4970094;28;20179;-40
2021/12/01 03:23:54;;;;;;;1.10;1.00;;;15.90;61.90;17.00;99216.00;;;;4969787;28;20205;-40
2021/12/01 03:26:20;;;;;;;0.40;0.40;;;15.90;61.90;17.00;99221.00;;;;4971178;28;20240;-40
2021/12/01 03:28:46;;;;;;;0.67;0.67;;;15.90;61.90;17.00;99210.00;;;;4969742;28;20251;-40
2021/12/01 03:31:11;;;;;;;0.60;0.60;;;15.90;62.00;17.00;99208.00;;;;4969555;28;20719;-40
2021/12/01 03:33:37;;;;;;;0.67;0.67;;;15.90;61.70;16.90;99207.00;;;;4970251;28;20180;-40
2021/12/01 03:36:03;;;;;;;0.53;0.53;;;15.90;61.60;16.90;99205.00;;;;4970273;28;20174;-40
2021/12/01 03:38:29;;;;;;;0.80;0.80;;;15.90;61.90;17.00;99203.00;;;;4970247;28;20208;-40
2021/12/01 03:40:56;;;;;;;0.93;0.93;;;15.80;61.90;16.90;99199.00;;;;4969335;28;20177;-43
2021/12/01 03:43:21;;;;;;;0.90;0.90;;;15.90;62.20;16.90;99192.00;;;;4969592;28;20215;-40
2021/12/01 03:45:47;;;;;;;0.60;0.60;;;15.90;61.90;16.90;99192.00;;;;4969569;28;20252;-40
2021/12/01 03:48:13;;;;;;;0.70;0.70;;;15.80;61.90;16.90;99191.00;;;;4969540;28;20675;-40
2021/12/01 03:50:40;;;;;;;0.80;0.80;;;15.80;61.90;16.90;99191.00;;;;4969167;28;20169;-42
2021/12/01 03:53:06;;;;;;;0.50;0.50;;;15.80;61.80;16.90;99184.00;;;;4969923;28;20205;-40
2021/12/01 03:55:31;;;;;;;0.60;0.60;;;15.80;62.10;16.90;99167.00;;;;4967967;28;20637;-39
2021/12/01 03:57:57;;;;;;;0.87;0.87;;;15.80;62.00;16.90;99177.00;;;;4969562;28;20196;-40
2021/12/01 04:00:23;;;;;;;0.83;0.70;;;15.80;61.80;16.90;99158.00;;;;4969051;28;20231;-40
2021/12/01 04:02:49;;;;;;;0.83;0.83;;;15.80;62.20;16.90;99167.00;;;;4969195;28;20201;-40
2021/12/01 04:05:14;;;;;;;0.60;0.60;;;15.80;62.00;16.90;99149.00;;;;4969219;28;20616;-40
2021/12/01 04:07:40;;;;;;;0.77;0.77;;;15.80;62.20;16.90;99145.00;;;;4968786;28;20906;-40
2021/12/01 04:10:12;;;;;;;0.80;0.80;;;15.70;62.00;16.90;99135.00;;;;4967021;28;20200;-40
2021/12/01 04:12:38;;;;;;;0.60;0.60;;;15.80;62.20;16.90;99139.00;;;;4967604;28;20191;-40
2021/12/01 04:15:04;;;;;;;0.73;0.70;;;15.70;61.90;16.80;99127.00;;;;4969010;28;20180;-40
2021/12/01 04:17:30;;;;;;;0.90;0.90;;;15.80;62.20;16.80;99123.00;;;;4968880;28;20209;-40
2021/12/01 04:19:56;;;;;;;0.90;0.77;;;15.70;62.20;16.80;99124.00;;;;4968525;28;20239;-40
2021/12/01 04:22:22;;;;;;;1.63;0.87;;;15.80;61.80;16.80;99112.00;;;;4968390;28;20252;-40
2021/12/01 04:24:47;;;;;;;0.87;0.87;;;15.80;61.80;16.80;99097.00;;;;4968811;28;20297;-40
2021/12/01 04:27:13;;;;;;;6.60;1.30;;;15.70;61.50;16.80;99085.00;;;;4968535;28;20181;-40
2021/12/01 04:29:40;;;;;;;7.00;1.43;;;15.70;62.30;16.80;99088.00;;;;4968921;28;20193;-40
2021/12/01 04:32:08;;;;;;;5.13;1.37;;;15.70;62.90;16.80;99074.00;;;;4968466;28;20180;-40
2021/12/01 04:34:37;;;;;;;2.50;1.07;;;15.70;62.20;16.80;99075.00;;;;4968495;28;20644;-40
2021/12/01 04:37:04;;;;;;;2.87;1.30;;;15.70;61.90;16.80;99060.00;;;;4968719;28;20169;-40
2021/12/01 04:39:30;;;;;;;3.73;1.40;;;15.70;62.10;16.80;99042.00;;;;4968463;28;20187;-40
2021/12/01 04:41:57;;;;;;;2.63;1.47;;;15.70;61.80;16.80;99050.00;;;;4968634;28;20185;-40
2021/12/01 04:44:24;;;;;;;5.10;1.30;;;15.70;62.20;16.80;99039.00;;;;4968640;28;20228;-39
2021/12/01 04:46:52;;;;;;;3.90;1.53;;;15.80;62.20;16.80;99049.00;;;;4968537;28;20173;-40
2021/12/01 04:49:20;;;;;;;7.43;1.60;;;15.80;62.20;16.80;99040.00;;;;4968208;28;20766;-40
2021/12/01 04:51:52;;;;;;;5.40;1.50;;;15.80;62.20;16.70;99020.00;;;;4968421;28;20616;-40
2021/12/01 04:54:18;;;;;;;3.97;1.33;;;15.70;62.00;16.70;99026.00;;;;4968650;28;20169;-40
2021/12/01 04:56:48;;;;;;;4.63;1.30;;;15.80;61.90;16.70;99025.00;;;;4969287;28;20701;-40
2021/12/01 04:59:13;;;;;;;2.00;1.40;;;15.80;62.20;16.70;99030.00;;;;4970864;28;20220;-40
2021/12/01 05:01:40;;;;;;;3.03;1.17;;;15.70;62.10;16.40;99007.00;;;;4972450;28;20663;-40
2021/12/01 05:04:07;;;;;;;1.47;1.20;;;15.70;61.80;16.70;99010.00;;;;4968625;28;20213;-40
2021/12/01 05:06:32;;;;;;;3.47;1.50;;;15.70;61.80;16.70;98997.00;;;;4968524;28;20176;-41
2021/12/01 05:08:58;;;;;;;2.40;1.50;;;15.70;61.80;16.70;99010.00;;;;4968080;28;20196;-38
2021/12/01 05:11:25;;;;;;;1.33;1.17;;;15.70;61.50;16.70;99002.00;;;;4967940;28;20228;-39
2021/12/01 05:13:51;;;;;;;1.53;1.40;;;15.70;61.80;16.70;98997.00;;;;4968171;28;20169;-39
2021/12/01 05:16:17;;;;;;;4.07;1.67;;;15.70;61.50;16.70;98994.00;;;;4967192;28;20193;-39
2021/12/01 05:18:43;;;;;;;1.50;1.30;;;15.70;61.70;16.70;98984.00;;;;4967999;28;20216;-39
2021/12/01 05:21:09;;;;;;;2.07;1.27;;;15.70;61.60;16.60;98981.00;;;;4968424;28;20176;-39
2021/12/01 05:23:34;;;;;;;3.07;1.40;;;15.60;61.60;16.70;98981.00;;;;4968270;28;20401;-39
2021/12/01 05:26:00;;;;;;;2.13;1.40;;;15.60;62.10;16.60;98974.00;;;;4968704;28;20659;-39
2021/12/01 05:28:26;;;;;;;4.20;1.47;;;15.70;63.00;16.60;98963.00;;;;4968115;28;20292;-38
2021/12/01 05:30:52;;;;;;;3.07;1.60;;;15.60;62.00;16.60;98959.00;;;;4967770;28;20181;-40
2021/12/01 05:33:17;;;;;;;1.70;1.60;;;15.70;61.90;16.60;98963.00;;;;4968197;28;20252;-40
2021/12/01 05:35:43;;;;;;;2.00;1.47;;;15.60;61.60;16.60;98937.00;;;;4968018;28;20205;-40
2021/12/01 05:38:10;;;;;;;2.30;1.60;;;15.60;61.60;16.60;98931.00;;;;4959349;28;20212;-38
2021/12/01 05:40:36;;;;;;;6.43;1.90;;;15.60;61.30;16.60;98936.00;;;;4966101;28;20196;-40
2021/12/01 05:43:01;;;;;;;5.53;1.80;;;15.60;61.70;16.60;98914.00;;;;4967500;28;20216;-40
2021/12/01 05:45:27;;;;;;;2.13;1.80;;;15.60;61.60;16.60;98908.00;;;;4969857;28;20264;-40
2021/12/01 05:47:53;;;;;;;4.77;1.80;;;15.60;61.50;16.60;98901.00;;;;4971372;28;20196;-38
2021/12/01 05:50:19;;;;;;;4.10;1.87;;;15.60;61.10;16.60;98889.00;;;;4971153;28;20173;-38
2021/12/01 05:52:44;;;;;;;2.67;2.10;;;15.60;61.10;16.60;98879.00;;;;4971407;28;20722;-40
2021/12/01 05:55:10;;;;;;;8.27;2.10;;;15.60;61.00;16.60;98874.00;;;;4971755;28;20944;-39
2021/12/01 05:57:36;;;;;;;6.10;2.10;;;15.50;61.10;16.60;98855.00;;;;4971123;28;20220;-40
2021/12/01 06:00:05;;;;;;;5.40;2.30;;;15.50;61.40;16.60;98844.00;;;;4970854;28;20639;-40
2021/12/01 06:02:31;;;;;;;3.70;2.00;;;15.40;61.30;16.60;98842.00;;;;4970443;28;20303;-40
2021/12/01 06:04:56;;;;;;;5.10;1.80;;;15.40;61.50;16.60;98826.00;;;;4971112;28;20213;-38
2021/12/01 06:07:22;;;;;;;4.00;2.10;;;15.40;61.20;16.60;98820.00;;;;4970569;28;20271;-40
2021/12/01 06:09:48;;;;;;;2.90;1.77;;;15.40;61.10;16.60;98813.00;;;;4971071;28;20188;-39
2021/12/01 06:12:13;;;;;;;5.43;1.90;;;15.40;61.20;16.60;98822.00;;;;4970072;28;20239;-40
2021/12/01 06:14:43;;;;;;;2.97;1.90;;;15.30;61.00;16.60;98815.00;;;;4969577;28;20682;-40
2021/12/01 06:17:10;;;;;;;1.87;1.70;;;15.40;60.90;16.60;98804.00;;;;4970860;28;20223;-40
2021/12/01 06:19:37;;;;;;;2.70;1.90;;;15.30;60.80;16.50;98804.00;;;;4971128;28;20235;-40
2021/12/01 06:22:04;;;;;;;3.93;2.00;;;15.30;60.90;16.50;98800.00;;;;4969881;28;20214;-40
2021/12/01 06:24:29;;;;;;;3.83;2.17;;;15.40;61.00;16.50;98804.00;;;;4967488;28;20207;-40
2021/12/01 06:26:55;;;;;;;2.00;1.80;;;15.30;60.80;16.50;98788.00;;;;4971495;28;20660;-40
2021/12/01 06:29:21;;;;;;;2.47;1.83;;;15.30;60.70;16.50;98781.00;;;;4971438;28;20196;-40
2021/12/01 06:31:46;;;;;;;2.47;1.60;;;15.30;61.30;16.50;98779.00;;;;4970905;28;20170;-40
2021/12/01 06:34:12;;;;;;;2.40;1.87;;;15.30;60.80;16.50;98772.00;;;;4971440;28;20519;-40
2021/12/01 06:36:38;;;;;;;2.77;1.90;;;15.30;60.50;16.50;98765.00;;;;4973090;28;20181;-40
2021/12/01 06:39:05;;;;;;;2.20;1.77;;;15.30;60.40;16.50;98760.00;;;;4975046;28;20229;-40
2021/12/01 06:41:30;;;;;;;1.53;1.43;;;15.30;60.60;16.50;98760.00;;;;4971302;28;20173;-40
2021/12/01 06:43:56;;;;;;;2.30;1.70;;;15.30;60.30;16.50;98756.00;;;;4986784;28;20208;-40
2021/12/01 06:46:22;;;;;;;1.77;1.67;;;15.30;60.30;16.50;98745.00;;;;4971270;28;20173;-40
2021/12/01 06:48:48;;;;;;;2.13;1.60;;;15.30;60.50;16.50;98746.00;;;;4971606;28;20201;-39
2021/12/01 06:51:14;;;;;;;2.20;1.70;;;15.30;60.30;16.40;98725.00;;;;4971780;28;20263;-39
2021/12/01 06:53:40;;;;;;;2.17;1.77;;;15.30;60.20;16.50;98738.00;;;;4972445;28;20232;-39
2021/12/01 06:56:06;;;;;;;1.70;1.60;;;15.30;60.30;16.40;98728.00;;;;4971404;28;20316;-39
2021/12/01 06:58:31;;;;;;;1.80;1.70;;;15.30;60.00;16.40;98725.00;;;;4971669;28;20201;-39
2021/12/01 07:00:57;;;;;;;2.90;1.70;;;15.30;60.00;16.40;98718.00;;;;4970921;28;20236;-39
2021/12/01 07:03:23;;;;;;;1.93;1.83;;;15.20;60.00;16.40;98718.00;;;;4971523;28;20260;-38
2021/12/01 07:05:49;;;;;;;3.03;1.80;;;15.20;60.00;16.40;98716.00;;;;4971696;28;20173;-39
2021/12/01 07:08:14;;;;;;;1.70;1.60;;;15.20;60.00;16.40;98705.00;;;;4970723;28;20731;-39
2021/12/01 07:10:40;;;;;;;1.67;1.57;;;15.20;60.30;16.40;98709.00;;;;4970163;28;20193;-39
2021/12/01 07:13:06;;;;;;;1.90;1.80;;;15.20;60.10;16.40;98708.00;;;;4971004;28;20639;-39
2021/12/01 07:15:32;;;;;;;1.70;1.60;;;15.20;60.00;16.40;98694.00;;;;4970933;28;20193;-39
2021/12/01 07:17:57;;;;;;;1.73;1.63;;;15.20;59.90;16.40;98692.00;;;;4970631;28;20197;-38
2021/12/01 07:20:23;;;;;;;2.23;1.70;;;15.20;59.90;16.40;98697.00;;;;4970336;28;20268;-40
2021/12/01 07:22:49;;;;;;;1.50;1.40;;;15.20;59.90;16.40;98687.00;;;;4970722;28;20244;-40
2021/12/01 07:25:14;;;;;;;1.70;1.60;;;15.10;60.10;16.40;98681.00;;;;4970814;28;20252;-40
2021/12/01 07:27:40;;;;;;;1.70;1.60;;;15.10;60.00;16.40;98683.00;;;;4970472;28;20196;-38
2021/12/01 07:30:07;;;;;;;1.70;1.60;;;15.10;60.70;16.40;98683.00;;;;4970929;28;20184;-40
2021/12/01 07:32:32;;;;;;;2.70;1.60;;;15.20;59.80;16.40;98676.00;;;;4970680;28;20271;-40
2021/12/01 07:34:58;;;;;;;2.93;1.63;;;15.20;60.10;16.40;98679.00;;;;4964776;28;20271;-40
2021/12/01 07:37:24;;;;;;;1.60;1.50;;;15.20;60.10;16.40;98672.00;;;;4955319;28;20205;-40
2021/12/01 07:39:50;;;;;;;1.57;1.37;;;15.20;60.10;16.40;98660.00;;;;4950213;29;20178;-38
2021/12/01 07:42:15;;;;;;;8.70;1.70;;;15.30;60.30;16.40;98654.00;;;;4950641;29;20181;-39
2021/12/01 07:44:42;;;;;;;9.53;1.87;;;15.40;60.60;16.50;98658.00;;;;4950645;29;20170;-38
2021/12/01 07:47:08;;;;;;;3.97;1.73;;;15.60;60.60;16.50;98669.00;;;;4951020;28;20166;-39
2021/12/01 07:49:34;;;;;;;6.30;2.10;;;15.90;60.30;16.60;98636.00;;;;4950591;29;20162;-39
2021/12/01 07:52:01;;;;;;;3.30;1.60;;;16.10;59.90;16.70;98649.00;;;;4958272;28;20173;-41
2021/12/01 07:54:27;;;;;;;5.20;1.67;;;16.30;59.80;16.90;98645.00;;;;4970528;28;20189;-40
2021/12/01 07:56:53;;;;;;;4.93;1.60;;;16.70;59.80;17.00;98622.00;;;;4970914;28;20164;-40
2021/12/01 07:59:19;;;;;;;3.07;1.50;;;16.90;59.40;17.20;98634.00;;;;4970300;28;20189;-39
2021/12/01 08:01:45;;;;;;;5.50;1.70;;;17.30;59.10;17.40;98638.00;;;;4969400;28;20180;-40
2021/12/01 08:04:11;;;;;;;2.50;1.70;;;17.60;58.80;17.50;98626.00;;;;4969960;28;20621;-39
2021/12/01 08:06:37;;;;;;;5.30;1.60;;;17.90;58.40;17.70;98621.00;;;;4969983;28;20165;-38
2021/12/01 08:09:03;;;;;;;1.97;1.50;;;18.20;58.10;17.90;98624.00;;;;4968489;28;20717;-40
2021/12/01 08:11:29;;;;;;;2.73;1.43;;;18.40;57.90;18.10;98610.00;;;;4969355;28;20177;-40
2021/12/01 08:13:55;;;;;;;1.93;1.50;;;18.50;57.90;18.20;98605.00;;;;4970331;28;20185;-40
2021/12/01 08:16:21;;;;;;;1.67;1.50;;;18.60;57.80;18.40;98613.00;;;;4969371;28;20182;-40
2021/12/01 08:18:51;;;;;;;2.27;1.53;;;18.70;57.80;18.50;98604.00;;;;4968344;28;20196;-40
2021/12/01 08:21:18;;;;;;;1.47;1.37;;;18.90;57.90;18.70;98607.00;;;;4969390;28;20535;-40
2021/12/01 08:23:43;;;;;;;2.13;1.50;;;19.00;57.70;18.80;98617.00;;;;4969427;28;20259;-40
2021/12/01 08:26:09;;;;;;;4.70;1.63;;;19.00;57.90;18.90;98611.00;;;;4969508;28;20165;-40
2021/12/01 08:28:35;;;;;;;3.87;1.80;;;19.10;57.90;19.00;98602.00;;;;4969101;28;20195;-39
2021/12/01 08:31:01;;;;;;;1.60;1.40;;;19.10;58.10;19.00;98587.00;;;;4969279;28;20228;-39
2021/12/01 08:33:26;;;;;;;3.50;1.40;;;19.10;58.20;19.10;98594.00;;;;4969558;28;20237;-39
2021/12/01 08:35:52;;;;;;;4.83;1.80;;;19.00;58.40;19.20;98588.00;;;;4969095;28;20180;-40
2021/12/01 08:38:18;;;;;;;1.87;1.30;;;19.10;58.60;19.20;98588.00;;;;4969139;28;20205;-39
2021/12/01 08:40:44;;;;;;;1.93;1.63;;;19.10;58.70;19.20;98587.00;;;;4968609;28;20179;-39
2021/12/01 08:43:09;;;;;;;5.43;1.60;;;19.00;58.80;19.20;98577.00;;;;4969419;28;20211;-40
2021/12/01 08:45:35;;;;;;;1.80;1.40;;;19.00;59.00;19.30;98578.00;;;;4965421;28;20683;-40
2021/12/01 08:48:03;;;;;;;3.17;1.70;;;18.90;59.30;19.30;98574.00;;;;4961344;28;20204;-38
2021/12/01 08:50:29;;;;;;;1.43;1.30;;;18.90;59.40;19.30;98580.00;;;;4969824;28;20172;-38
2021/12/01 08:52:55;;;;;;;2.00;1.47;;;18.90;59.60;19.30;98566.00;;;;4969101;28;20176;-38
2021/12/01 08:55:23;;;;;;;3.30;1.40;;;18.80;59.50;19.30;98556.00;;;;4969379;28;20189;-39
2021/12/01 08:57:51;;;;;;;2.03;1.60;;;18.80;59.80;19.30;98554.00;;;;4969341;28;20229;-40
2021/12/01 09:00:19;;;;;;;1.90;1.30;;;18.80;59.80;19.30;98550.00;;;;4969665;28;20704;-40
2021/12/01 09:02:44;;;;;;;1.87;1.50;;;18.70;59.90;19.30;98553.00;;;;4969205;28;20244;-40
2021/12/01 09:05:10;;;;;;;2.77;1.30;;;18.70;60.20;19.30;98549.00;;;;4967972;28;20635;-40
2021/12/01 09:07:36;;;;;;;1.80;1.47;;;18.70;60.30;19.30;98549.00;;;;4969004;28;20202;-39
2021/12/01 09:10:03;;;;;;;3.43;1.63;;;18.60;60.30;19.20;98546.00;;;;4968084;28;20165;-39
2021/12/01 09:12:28;;;;;;;3.77;1.50;;;18.60;60.30;19.20;98540.00;;;;4968966;28;20174;-40
2021/12/01 09:14:55;;;;;;;6.00;2.07;;;18.60;60.60;19.20;98547.00;;;;4969403;28;20173;-41
2021/12/01 09:17:22;;;;;;;5.43;1.80;;;18.50;60.60;19.20;98535.00;;;;4967922;28;20961;-41
2021/12/01 09:19:48;;;;;;;7.73;1.60;;;18.50;60.30;19.20;98518.00;;;;4977616;28;20167;-40
2021/12/01 09:22:14;;;;;;;4.43;1.47;;;18.50;60.20;19.10;98516.00;;;;4975707;28;20195;-41
2021/12/01 09:24:39;;;;;;;4.03;1.60;;;18.50;60.20;19.10;98512.00;;;;4973310;28;20280;-41
2021/12/01 09:27:05;;;;;;;4.10;1.70;;;18.50;60.50;19.10;98513.00;;;;4973218;28;20848;-41
2021/12/01 09:29:31;;;;;;;3.93;1.63;;;18.40;60.30;19.10;98504.00;;;;4973069;28;20216;-40
2021/12/01 09:31:58;;;;;;;3.13;1.70;;;18.40;60.30;19.10;98512.00;;;;4972209;28;20198;-40
2021/12/01 09:34:24;;;;;;;4.63;1.60;;;18.40;60.20;19.00;98516.00;;;;4972824;28;20159;-41
2021/12/01 09:36:50;;;;;;;5.80;1.63;;;18.30;60.30;19.00;98514.00;;;;4973163;28;20179;-40
2021/12/01 09:39:16;;;;;;;2.47;1.37;;;18.30;60.20;19.00;98509.00;;;;4972951;28;20222;-41
2021/12/01 09:41:41;;;;;;;3.60;1.60;;;18.30;60.40;19.00;98500.00;;;;4972218;28;20879;-40
2021/12/01 09:44:07;;;;;;;2.80;1.53;;;18.20;60.20;19.00;98502.00;;;;4971977;28;20199;-41
2021/12/01 09:46:33;;;;;;;6.40;1.63;;;18.20;60.30;19.00;98490.00;;;;4973525;28;20172;-41
2021/12/01 09:48:59;;;;;;;2.57;1.40;;;18.20;60.20;18.90;98495.00;;;;4971789;28;20281;-40
2021/12/01 09:51:26;;;;;;;3.80;1.27;;;18.20;60.30;18.90;98494.00;;;;4971584;28;20172;-40
2021/12/01 09:53:53;;;;;;;3.70;1.40;;;18.10;60.10;18.90;98487.00;;;;4972729;28;20172;-40
2021/12/01 09:56:19;;;;;;;4.27;1.40;;;18.10;60.10;18.90;98491.00;;;;4972723;28;20183;-41
2021/12/01 09:58:45;;;;;;;2.10;1.33;;;18.10;60.10;18.90;98495.00;;;;4972859;28;20219;-40
2021/12/01 10:01:17;;;;;;;1.40;1.23;;;18.10;60.10;18.80;98487.00;;;;4971125;28;20194;-40
2021/12/01 10:03:44;;;;;;;5.27;1.77;;;18.00;60.10;18.90;98472.00;;;;4972667;28;20903;-39
2021/12/01 10:06:16;;;;;;;3.07;1.53;;;18.20;60.30;18.90;98478.00;;;;4972901;28;20215;-39
2021/12/01 10:08:51;;;;;;;2.93;1.30;;;18.30;59.90;19.00;98455.00;;;;4972644;28;20200;-39
2021/12/01 10:11:23;;;;;;;3.30;1.30;;;18.50;59.60;19.00;98456.00;;;;4971496;28;20179;-39
2021/12/01 10:13:55;;;;;;;9.73;1.90;;;18.80;59.40;19.20;98444.00;;;;4972625;28;20171;-39
2021/12/01 10:16:23;;;;;;;5.63;1.63;;;19.00;59.30;19.30;98456.00;;;;4972521;28;20192;-40
2021/12/01 10:18:52;;;;;;;8.80;1.80;;;19.00;58.90;19.30;98448.00;;;;4970760;28;20209;-39
2021/12/01 10:21:35;;;;;;;7.80;2.20;;;19.20;59.20;19.40;98450.00;;;;4971640;28;20246;-39
2021/12/01 10:24:23;;;;;;;6.87;2.03;;;19.20;59.10;19.50;98446.00;;;;4972139;28;20216;-39
2021/12/01 10:26:59;;;;;;;4.37;1.63;;;19.20;59.10;19.50;98433.00;;;;4972328;28;20641;-40
2021/12/01 10:29:34;;;;;;;5.30;1.70;;;19.20;59.00;19.50;98434.00;;;;4972607;28;20200;-39
2021/12/01 10:32:07;;;;;;;5.67;2.00;;;19.10;59.80;19.60;98430.00;;;;4970127;28;20249;-39
2021/12/01 10:35:05;;;;;;;6.30;2.47;;;19.10;59.20;19.60;98433.00;;;;4972064;28;20211;-39
2021/12/01 10:37:33;;;;;;;10.23;4.30;;;19.20;60.00;19.60;98420.00;;;;4959681;28;20236;-39
2021/12/01 10:40:04;;;;;;;13.90;6.27;;;19.20;63.50;19.60;98431.00;;;;4971730;28;20643;-39
2021/12/01 10:42:30;;;;;;;12.57;4.53;;;19.20;65.50;19.70;98417.00;;;;4971758;28;20173;-39
2021/12/01 10:44:57;;;;;;;18.13;8.30;;;19.20;65.00;19.70;98419.00;;;;4971686;28;20188;-40
2021/12/01 10:47:23;;;;;;;18.70;5.70;;;19.20;63.80;19.70;98406.00;;;;4972393;28;20217;-38
2021/12/01 10:49:49;;;;;;;17.30;5.40;;;19.20;64.80;19.70;98407.00;;;;4971945;28;20189;-40
2021/12/01 10:52:32;;;;;;;14.57;4.63;;;19.20;63.80;19.70;98391.00;;;;4970486;28;20173;-39
2021/12/01 10:55:24;;;;;;;15.10;4.67;;;19.10;63.30;19.70;98374.00;;;;4972114;28;20176;-39
2021/12/01 10:57:55;;;;;;;15.03;4.40;;;19.10;63.50;19.70;98369.00;;;;4971596;28;20197;-39